Time;durP1;ratioP1;P1;durP2;ratioP2;P2;SDS_P1;SDS_P2;PMS_P1;PMS_P2;Temp;Humidity;BMP_temperature;BMP_pressure;BME280_temperature;BME280_humidity;BME280_pressure;Samples;Min_cycle;Max_cycle;Signal;HPM_P1;HPM_P2
2024/02/25 00:00:33;;;;;;;5.13;2.92;;;;;;;-146.27;92.99;44629.03;5064060;28;20024;-73
2024/02/25 00:02:59;;;;;;;5.22;3.47;;;;;;;-146.27;92.84;44615.09;5066837;28;20020;-72
2024/02/25 00:05:24;;;;;;;11.90;2.97;;;;;;;-146.27;92.91;44613.13;5070392;28;20025;-73
2024/02/25 00:07:49;;;;;;;5.43;2.42;;;;;;;-146.27;92.93;44625.06;5066917;28;20033;-73
2024/02/25 00:10:15;;;;;;;6.68;3.38;;;;;;;-146.27;92.87;44613.13;5072038;28;20656;-73
2024/02/25 00:12:40;;;;;;;4.55;2.40;;;;;;;-146.27;92.63;44609.13;5074318;28;20064;-73
2024/02/25 00:15:06;;;;;;;7.47;2.50;;;;;;;-146.27;92.75;44617.09;5073816;28;20036;-72
2024/02/25 00:17:31;;;;;;;5.95;2.80;;;;;;;-146.27;93.18;44640.97;5073046;28;20380;-72
2024/02/25 00:19:56;;;;;;;3.65;2.88;;;;;;;-146.27;92.89;44609.13;5072711;28;20056;-72
2024/02/25 00:22:22;;;;;;;4.68;2.65;;;;;;;-146.27;92.74;44615.09;5070747;28;20085;-72
2024/02/25 00:24:47;;;;;;;4.20;3.20;;;;;;;-146.27;92.78;44571.34;5072760;28;20066;-73
2024/02/25 00:27:12;;;;;;;7.63;3.95;;;;;;;-146.27;92.80;44611.13;5069217;28;20523;-72
2024/02/25 00:29:38;;;;;;;8.05;4.07;;;;;;;-146.27;92.67;44581.28;5071902;28;20062;-72
2024/02/25 00:32:04;;;;;;;6.68;4.70;;;;;;;-146.27;92.57;44557.41;5066830;28;20028;-73
2024/02/25 00:34:32;;;;;;;8.02;4.50;;;;;;;-146.27;92.71;44579.28;5071446;28;20104;-73
2024/02/25 00:36:57;;;;;;;5.75;4.35;;;;;;;-146.27;92.63;44583.28;5072175;28;20380;-72
2024/02/25 00:39:22;;;;;;;6.30;4.28;;;;;;;-146.27;93.59;44627.03;5071281;28;20027;-72
2024/02/25 00:41:51;;;;;;;9.63;4.82;;;;;;;-146.27;93.46;44591.22;5073811;28;20443;-71
2024/02/25 00:44:16;;;;;;;8.38;4.88;;;;;;;-146.27;93.21;44587.25;5072158;28;20039;-72
2024/02/25 00:46:42;;;;;;;9.73;5.13;;;;;;;-146.27;93.08;44587.25;5072271;28;20107;-73
2024/02/25 00:49:07;;;;;;;8.02;4.55;;;;;;;-146.27;93.17;44553.41;5069907;28;20020;-72
2024/02/25 00:51:32;;;;;;;9.85;4.93;;;;;;;-146.27;93.25;44553.41;5072545;28;20032;-72
2024/02/25 00:53:58;;;;;;;9.20;4.95;;;;;;;-146.27;93.28;44557.41;5071764;28;20020;-73
2024/02/25 00:56:23;;;;;;;5.07;4.05;;;;;;;-146.27;93.96;44589.25;5072081;28;20704;-73
2024/02/25 00:58:49;;;;;;;9.23;4.65;;;;;;;-146.27;93.78;44565.38;5072756;28;20028;-72
2024/02/25 01:01:14;;;;;;;7.63;4.95;;;;;;;-146.27;93.75;44549.44;5070583;28;20107;-72
2024/02/25 01:03:43;;;;;;;9.32;5.72;;;;;;;-146.27;93.99;44573.31;5070282;28;20474;-72
2024/02/25 01:06:09;;;;;;;6.40;4.75;;;;;;;-146.27;93.76;44531.53;5071962;28;20035;-71
2024/02/25 01:08:41;;;;;;;12.18;5.57;;;;;;;-146.27;93.85;44535.50;5070422;28;20024;-72
2024/02/25 01:11:07;;;;;;;8.70;4.95;;;;;;;-146.27;93.37;44505.66;5071101;28;20033;-72
2024/02/25 01:13:33;;;;;;;9.68;5.60;;;;;;;-146.27;94.57;44557.41;5072306;28;20054;-72
2024/02/25 01:16:02;;;;;;;10.15;5.45;;;;;;;-146.27;93.90;44529.53;5073513;28;20056;-73
2024/02/25 01:18:31;;;;;;;9.57;4.75;;;;;;;-146.27;93.60;44521.59;5065518;28;20107;-73
2024/02/25 01:20:57;;;;;;;6.00;4.90;;;;;;;-146.27;95.01;44597.19;5069590;28;20032;-72
2024/02/25 01:23:22;;;;;;;7.63;5.00;;;;;;;-146.27;94.91;44561.38;5070252;28;20016;-73
2024/02/25 01:25:48;;;;;;;6.93;5.13;;;;;;;-146.27;94.27;44493.72;5066639;28;20056;-73
2024/02/25 01:28:13;;;;;;;6.88;5.13;;;;;;;-146.27;94.13;44517.59;5071457;28;20131;-72
2024/02/25 01:30:39;;;;;;;6.70;5.13;;;;;;;-146.27;95.59;44597.19;5068707;28;20094;-72
2024/02/25 01:33:05;;;;;;;9.27;5.78;;;;;;;-146.27;95.43;44505.66;5069960;28;20036;-73
2024/02/25 01:35:31;;;;;;;6.80;5.03;;;;;;;-146.27;95.13;44525.56;5070273;28;20039;-73
2024/02/25 01:37:56;;;;;;;7.28;5.53;;;;;;;-146.27;94.94;44511.63;5062867;28;20621;-72
2024/02/25 01:40:22;;;;;;;8.05;5.22;;;;;;;-146.27;95.87;44519.59;5071158;28;20028;-72
2024/02/25 01:43:04;;;;;;;9.80;5.82;;;;;;;-146.27;95.26;44513.63;5064963;28;20151;-73
2024/02/25 01:45:30;;;;;;;7.75;5.75;;;;;;;-146.27;94.91;44509.66;5077002;28;20051;-72
2024/02/25 01:47:56;;;;;;;10.23;5.85;;;;;;;-146.27;94.59;44469.84;5070028;28;20531;-72
2024/02/25 01:50:23;;;;;;;8.85;5.80;;;;;;;-146.27;94.41;44485.78;5070006;28;20032;-72
2024/02/25 01:52:50;;;;;;;8.07;5.65;;;;;;;-146.27;94.62;44463.88;5070002;28;20027;-71
2024/02/25 01:55:16;;;;;;;10.50;6.70;;;;;;;-146.27;94.53;44541.47;5071335;28;20421;-72
2024/02/25 01:57:42;;;;;;;10.25;6.40;;;;;;;-146.27;94.75;44493.72;5069163;28;20059;-73
2024/02/25 02:00:07;;;;;;;7.85;5.55;;;;;;;-146.27;94.96;44485.78;5070386;28;20039;-71
2024/02/25 02:02:33;;;;;;;10.88;6.50;;;;;;;-146.27;95.39;44495.72;5070416;28;20532;-72
2024/02/25 02:04:58;;;;;;;10.65;6.32;;;;;;;-146.27;95.47;44489.75;5070762;28;20039;-73
2024/02/25 02:07:24;;;;;;;10.80;6.63;;;;;;;-146.27;96.64;44483.78;5067209;28;20052;-71
2024/02/25 02:09:49;;;;;;;12.50;7.22;;;;;;;-146.27;97.05;44501.69;5069442;28;20028;-72
2024/02/25 02:12:14;;;;;;;9.30;6.43;;;;;;;-146.27;96.51;44465.88;5068927;28;20097;-72
2024/02/25 02:14:40;;;;;;;10.75;7.47;;;;;;;-146.27;95.46;44440.00;5069565;28;20489;-73
2024/02/25 02:17:06;;;;;;;10.70;7.43;;;;;;;-146.27;95.37;44477.81;5066715;28;20684;-72
2024/02/25 02:19:32;;;;;;;10.55;7.10;;;;;;;-146.27;96.20;44475.81;5069956;28;20534;-72
2024/02/25 02:21:57;;;;;;;10.75;7.30;;;;;;;-146.27;95.82;44442.00;5067245;28;20029;-73
2024/02/25 02:24:24;;;;;;;11.20;7.43;;;;;;;-146.27;95.71;44465.88;5069643;28;20099;-73
2024/02/25 02:26:49;;;;;;;11.02;7.40;;;;;;;-146.27;95.90;44438.00;5070254;28;20036;-73
2024/02/25 02:29:15;;;;;;;10.10;7.10;;;;;;;-146.27;95.61;44459.91;5068362;28;20028;-73
2024/02/25 02:31:40;;;;;;;10.98;7.65;;;;;;;-146.27;96.08;44465.88;5069571;28;20062;-72
2024/02/25 02:34:05;;;;;;;12.93;7.80;;;;;;;-146.27;96.33;44457.91;5068471;28;20035;-73
2024/02/25 02:36:31;;;;;;;13.45;7.32;;;;;;;-146.27;96.94;44463.88;5070167;28;20108;-73
2024/02/25 02:38:56;;;;;;;15.45;8.23;;;;;;;-146.27;96.81;44465.88;5070675;28;20459;-73
2024/02/25 02:41:25;;;;;;;14.25;7.85;;;;;;;-146.27;96.76;44497.72;5070541;28;20495;-73
2024/02/25 02:43:51;;;;;;;12.07;8.23;;;;;;;-146.27;96.42;44402.19;5069857;28;20024;-73
2024/02/25 02:46:16;;;;;;;13.13;8.77;;;;;;;-146.27;97.20;44469.84;5068883;28;20082;-73
2024/02/25 02:48:41;;;;;;;13.18;7.85;;;;;;;-146.27;96.66;44467.88;5069726;28;20044;-73
2024/02/25 02:51:08;;;;;;;14.35;8.50;;;;;;;-146.27;96.91;44410.16;5069500;28;20067;-73
2024/02/25 02:53:33;;;;;;;17.23;9.13;;;;;;;-146.27;96.01;44394.25;5068919;28;20028;-72
2024/02/25 02:55:59;;;;;;;13.27;9.38;;;;;;;-146.27;95.71;44410.16;5070471;28;20107;-73
2024/02/25 02:58:24;;;;;;;12.80;8.57;;;;;;;-146.27;95.58;44378.31;5067053;28;20107;-73
2024/02/25 03:00:50;;;;;;;16.30;9.30;;;;;;;-146.27;96.16;44440.00;5072194;28;20127;-73
2024/02/25 03:03:15;;;;;;;15.77;8.98;;;;;;;-146.27;96.19;44422.09;5076654;28;20059;-72
2024/02/25 03:05:41;;;;;;;13.93;9.18;;;;;;;-146.27;96.77;44384.28;5068329;28;20400;-72
2024/02/25 03:08:06;;;;;;;16.42;10.32;;;;;;;-146.27;97.01;44434.03;5068850;28;20024;-71
2024/02/25 03:10:32;;;;;;;15.02;9.45;;;;;;;-146.27;96.43;44410.16;5069149;28;20027;-72
2024/02/25 03:12:57;;;;;;;23.40;10.75;;;;;;;-146.27;95.90;44398.22;5068182;28;20109;-73
2024/02/25 03:15:23;;;;;;;14.93;9.98;;;;;;;-146.27;95.57;44422.09;5067802;28;20031;-72
2024/02/25 03:17:48;;;;;;;16.45;10.35;;;;;;;-146.27;96.36;44443.97;5069225;28;20032;-72
2024/02/25 03:20:14;;;;;;;20.05;11.07;;;;;;;-146.27;96.23;44434.03;5070931;28;20033;-71
2024/02/25 03:22:40;;;;;;;17.67;11.07;;;;;;;-146.27;96.61;44374.34;5058642;28;20073;-73
2024/02/25 03:25:08;;;;;;;23.90;11.15;;;;;;;-146.27;96.22;44410.16;5068044;28;20493;-73
2024/02/25 03:27:37;;;;;;;17.38;11.65;;;;;;;-146.27;97.30;44487.75;5068393;28;20059;-73
2024/02/25 03:30:10;;;;;;;22.55;13.30;;;;;;;-146.27;96.79;44382.31;5067912;28;20357;-72
2024/02/25 03:32:35;;;;;;;18.33;11.98;;;;;;;-146.27;96.06;44354.44;5068154;28;20449;-72
2024/02/25 03:35:00;;;;;;;18.08;12.27;;;;;;;-146.27;95.89;44350.47;5069221;28;20056;-72
2024/02/25 03:37:26;;;;;;;22.60;12.40;;;;;;;-146.27;95.45;44338.53;5072779;28;20499;-73
2024/02/25 03:39:51;;;;;;;18.90;12.15;;;;;;;-146.27;95.50;44378.31;5068098;28;20025;-73
2024/02/25 03:42:17;;;;;;;22.65;13.85;;;;;;;-146.27;96.05;44362.41;5066630;28;20032;-73
2024/02/25 03:44:42;;;;;;;24.83;13.85;;;;;;;-146.27;96.49;44370.38;5075297;28;20544;-73
2024/02/25 03:47:07;;;;;;;25.40;14.13;;;;;;;-146.27;95.77;44362.41;5070426;28;20054;-72
2024/02/25 03:49:33;;;;;;;22.70;13.98;;;;;;;-146.27;95.55;44350.47;5073394;28;20036;-72
2024/02/25 03:51:58;;;;;;;27.27;13.68;;;;;;;-146.27;96.32;44394.25;5068576;28;20522;-72
2024/02/25 03:54:24;;;;;;;23.35;13.27;;;;;;;-146.27;95.90;44356.44;5067289;28;20028;-73
2024/02/25 03:56:49;;;;;;;22.08;13.43;;;;;;;-146.27;96.17;44394.25;5056024;28;20087;-73
2024/02/25 03:59:15;;;;;;;23.45;14.15;;;;;;;-146.27;95.29;44394.25;5067671;28;20032;-72
2024/02/25 04:01:40;;;;;;;23.90;13.40;;;;;;;-146.27;95.32;44342.50;5069157;28;20095;-72
2024/02/25 04:04:05;;;;;;;23.20;13.57;;;;;;;-146.27;95.17;44354.44;5068208;28;20036;-73
2024/02/25 04:06:31;;;;;;;25.90;13.15;;;;;;;-146.27;95.04;44380.31;5067348;28;20036;-73
2024/02/25 04:08:56;;;;;;;26.65;13.70;;;;;;;-146.27;95.64;44465.88;5065205;28;20040;-72
2024/02/25 04:11:21;;;;;;;20.92;13.00;;;;;;;-146.27;95.45;44390.25;5073006;28;20024;-73
2024/02/25 04:13:47;;;;;;;20.38;13.40;;;;;;;-146.27;95.24;44378.31;5067937;28;20031;-72
2024/02/25 04:16:12;;;;;;;20.23;12.65;;;;;;;-146.27;95.95;44406.19;5064854;28;20052;-72
2024/02/25 04:18:38;;;;;;;22.52;12.82;;;;;;;-146.27;96.15;44398.22;5067436;28;20094;-72
2024/02/25 04:21:04;;;;;;;24.02;14.23;;;;;;;-146.27;96.30;44378.31;5066846;28;20082;-73
2024/02/25 04:23:29;;;;;;;27.13;15.27;;;;;;;-146.27;96.59;44382.31;5066556;28;20093;-73
2024/02/25 04:25:54;;;;;;;22.52;13.77;;;;;;;-146.27;96.19;44398.22;5068632;28;20125;-73
2024/02/25 04:28:20;;;;;;;26.20;15.43;;;;;;;-146.27;96.18;44314.66;5068528;28;20092;-73
2024/02/25 04:30:45;;;;;;;25.90;15.35;;;;;;;-146.27;95.39;44330.56;5065841;28;20119;-73
2024/02/25 04:33:10;;;;;;;25.85;15.13;;;;;;;-146.27;95.42;44312.66;5066561;28;20048;-73
2024/02/25 04:35:36;;;;;;;25.40;14.98;;;;;;;-146.27;95.48;44356.44;5068487;28;20056;-73
2024/02/25 04:38:01;;;;;;;25.63;15.35;;;;;;;-146.27;95.28;44354.44;5065289;28;20047;-73
2024/02/25 04:40:27;;;;;;;28.33;15.43;;;;;;;-146.27;95.83;44314.66;5072762;28;20095;-73
2024/02/25 04:42:52;;;;;;;28.95;16.10;;;;;;;-146.27;96.12;44316.66;5066189;28;20032;-73
2024/02/25 04:45:18;;;;;;;27.55;16.00;;;;;;;-146.27;95.74;44350.47;5066807;28;20112;-72
2024/02/25 04:47:43;;;;;;;29.15;15.85;;;;;;;-146.27;95.79;44310.69;5065820;28;20054;-74
2024/02/25 04:50:09;;;;;;;32.47;16.25;;;;;;;-146.27;95.58;44292.78;5069771;28;20059;-73
2024/02/25 04:52:34;;;;;;;29.63;15.52;;;;;;;-146.27;95.39;44320.63;5068477;28;20024;-73
2024/02/25 04:55:00;;;;;;;27.58;16.20;;;;;;;-146.27;95.31;44292.78;5070281;28;20144;-72
2024/02/25 04:57:25;;;;;;;28.52;15.88;;;;;;;-146.27;95.54;44314.66;5071489;28;20032;-73
2024/02/25 04:59:51;;;;;;;31.42;16.30;;;;;;;-146.27;95.93;44322.63;5070602;28;20038;-73
2024/02/25 05:02:16;;;;;;;28.20;16.52;;;;;;;-146.27;95.47;44274.84;5067709;28;20128;-73
2024/02/25 05:04:42;;;;;;;26.65;15.13;;;;;;;-146.27;95.15;44298.75;5071195;28;20052;-73
2024/02/25 05:07:08;;;;;;;28.90;16.48;;;;;;;-146.27;94.88;44288.78;5068400;28;20504;-72
2024/02/25 05:09:33;;;;;;;33.60;16.45;;;;;;;-146.27;94.84;44286.78;5071264;28;20028;-74
2024/02/25 05:11:59;;;;;;;27.77;16.73;;;;;;;-146.27;94.88;44296.75;5072547;28;20031;-73
2024/02/25 05:14:25;;;;;;;26.13;16.25;;;;;;;-146.27;94.99;44282.81;5072978;28;20374;-71
2024/02/25 05:16:51;;;;;;;31.55;16.75;;;;;;;-146.27;95.02;44262.91;5071145;28;20024;-73
2024/02/25 05:19:20;;;;;;;28.20;15.77;;;;;;;-146.27;94.74;44270.88;5071316;28;20495;-73
2024/02/25 05:21:45;;;;;;;28.75;16.55;;;;;;;-146.27;95.01;44274.84;5067487;28;20032;-72
2024/02/25 05:24:11;;;;;;;28.48;16.15;;;;;;;-146.27;95.01;44318.63;5070544;28;20032;-73
2024/02/25 05:26:36;;;;;;;26.67;14.82;;;;;;;-146.27;95.33;44262.91;5072097;28;20037;-73
2024/02/25 05:29:03;;;;;;;23.00;13.60;;;;;;;-146.27;94.89;44250.97;5070536;28;20062;-71
2024/02/25 05:31:28;;;;;;;28.70;16.02;;;;;;;-146.27;94.78;44249.00;5063175;28;20083;-74
2024/02/25 05:33:54;;;;;;;23.95;14.50;;;;;;;-146.27;94.70;44276.84;5071382;28;20485;-73
2024/02/25 05:36:23;;;;;;;26.88;15.93;;;;;;;-146.27;94.72;44274.84;5071371;28;20082;-73
2024/02/25 05:38:51;;;;;;;22.13;14.00;;;;;;;-146.27;94.91;44254.97;5071917;28;20036;-73
2024/02/25 05:41:16;;;;;;;26.83;14.93;;;;;;;-146.27;95.10;44266.91;5069106;28;20111;-73
2024/02/25 05:43:44;;;;;;;25.63;15.40;;;;;;;-146.27;95.08;44278.84;5072091;28;20116;-73
2024/02/25 05:46:10;;;;;;;22.42;14.25;;;;;;;-146.27;95.13;44268.88;5070941;28;20032;-73
2024/02/25 05:48:35;;;;;;;27.65;15.02;;;;;;;-146.27;94.71;44258.94;5070426;28;20089;-72
2024/02/25 05:51:01;;;;;;;30.98;14.85;;;;;;;-146.27;95.23;44292.78;5071001;28;20024;-71
2024/02/25 05:53:27;;;;;;;30.48;16.10;;;;;;;-146.27;95.07;44270.88;5070823;28;20033;-72
2024/02/25 05:55:52;;;;;;;25.52;14.20;;;;;;;-146.27;94.65;44260.94;5069816;28;20093;-72
2024/02/25 05:58:18;;;;;;;23.88;14.23;;;;;;;-146.27;94.90;44262.91;5070323;28;20115;-73
2024/02/25 06:00:43;;;;;;;28.00;14.25;;;;;;;-146.27;94.96;44338.53;5070365;28;20468;-73
2024/02/25 06:03:08;;;;;;;29.95;14.95;;;;;;;-146.27;94.86;44274.84;5070006;28;20060;-72
2024/02/25 06:05:34;;;;;;;28.40;14.77;;;;;;;-146.27;94.72;44282.81;5069914;28;20528;-72
2024/02/25 06:08:03;;;;;;;24.65;14.05;;;;;;;-146.27;94.64;44247.00;5070588;28;20499;-73
2024/02/25 06:10:29;;;;;;;26.60;14.73;;;;;;;-146.27;94.49;44288.78;5068756;28;20036;-73
2024/02/25 06:12:54;;;;;;;24.48;13.07;;;;;;;-146.27;94.71;44322.63;5067883;28;20570;-73
2024/02/25 06:15:19;;;;;;;26.90;14.55;;;;;;;-146.27;94.75;44290.78;5071164;28;20051;-73
2024/02/25 06:17:45;;;;;;;24.83;14.70;;;;;;;-146.27;94.96;44278.84;5076022;28;20400;-73
2024/02/25 06:20:10;;;;;;;30.38;14.48;;;;;;;-146.27;94.63;44250.97;5075306;28;20540;-73
2024/02/25 06:22:37;;;;;;;31.88;14.80;;;;;;;-146.27;94.99;44296.75;5069006;28;20028;-73
2024/02/25 06:25:04;;;;;;;25.70;14.13;;;;;;;-146.27;94.83;44298.75;5069952;28;20397;-73
2024/02/25 06:27:35;;;;;;;24.13;14.90;;;;;;;-146.27;94.34;44258.94;5077335;28;20437;-72
2024/02/25 06:30:04;;;;;;;27.25;15.00;;;;;;;-146.27;94.24;44314.66;5070330;28;20104;-72
2024/02/25 06:32:31;;;;;;;24.23;15.07;;;;;;;-146.27;94.38;44314.66;5069946;28;20095;-72
2024/02/25 06:34:57;;;;;;;27.25;13.85;;;;;;;-146.27;94.24;44296.75;5070059;28;20035;-72
2024/02/25 06:37:23;;;;;;;26.55;15.30;;;;;;;-146.27;94.31;44274.84;5070347;28;20515;-72
2024/02/25 06:39:48;;;;;;;25.20;15.07;;;;;;;-146.27;93.93;44306.69;5066326;28;20048;-72
2024/02/25 06:42:14;;;;;;;24.65;13.88;;;;;;;-146.27;93.71;44372.34;5068382;28;20052;-72
2024/02/25 06:44:43;;;;;;;26.67;15.60;;;;;;;-146.27;94.03;44330.56;5066706;28;20059;-72
2024/02/25 06:47:09;;;;;;;27.45;14.55;;;;;;;-146.27;93.63;44310.69;5067751;28;20025;-72
2024/02/25 06:49:34;;;;;;;29.50;15.18;;;;;;;-146.27;93.52;44356.44;5073522;28;20025;-72
2024/02/25 06:52:00;;;;;;;30.58;16.00;;;;;;;-146.27;93.50;44326.59;5068296;28;20078;-72
2024/02/25 06:54:25;;;;;;;24.27;14.05;;;;;;;-146.27;93.50;44334.56;5069067;28;20036;-73
2024/02/25 06:56:50;;;;;;;27.73;14.18;;;;;;;-146.27;93.55;44322.63;5058819;28;20053;-73
2024/02/25 06:59:16;;;;;;;25.33;14.20;;;;;;;-146.27;93.37;44370.38;5069551;28;20028;-73
2024/02/25 07:01:41;;;;;;;25.73;14.82;;;;;;;-146.27;93.38;44372.34;5068075;28;20036;-72
2024/02/25 07:04:06;;;;;;;26.13;15.35;;;;;;;-146.27;93.22;44414.13;5069047;28;20028;-72
2024/02/25 07:06:32;;;;;;;23.52;14.35;;;;;;;-146.27;93.33;44404.19;5061895;28;20047;-73
2024/02/25 07:08:57;;;;;;;26.20;14.38;;;;;;;-146.27;93.46;44436.03;5069721;28;20138;-73
2024/02/25 07:11:23;;;;;;;25.90;15.52;;;;;;;-146.27;93.83;44426.06;5070919;28;20020;-71
2024/02/25 07:13:49;;;;;;;26.25;14.75;;;;;;;-146.27;93.81;44449.97;5068693;28;20040;-73
2024/02/25 07:16:15;;;;;;;27.27;15.52;;;;;;;-146.27;93.71;44461.91;5070659;28;20443;-73
2024/02/25 07:18:41;;;;;;;31.27;15.48;;;;;;;-146.27;93.84;44465.88;5068463;28;20034;-73
2024/02/25 07:21:08;;;;;;;25.52;15.18;;;;;;;-146.27;94.11;44463.88;5068907;28;20095;-72
2024/02/25 07:23:39;;;;;;;24.90;15.00;;;;;;;-146.27;94.28;44521.59;5068360;28;20046;-74
2024/02/25 07:26:05;;;;;;;25.15;14.95;;;;;;;-146.27;94.34;44517.59;5068914;28;20044;-72
2024/02/25 07:28:30;;;;;;;25.80;15.45;;;;;;;-146.27;94.02;44525.56;5068107;28;20031;-73
2024/02/25 07:30:55;;;;;;;24.33;15.15;;;;;;;-146.27;93.95;44593.22;5069259;28;20095;-71
2024/02/25 07:33:21;;;;;;;29.10;15.75;;;;;;;-146.27;94.19;44541.47;5069297;28;20116;-73
2024/02/25 07:35:46;;;;;;;30.73;15.90;;;;;;;-146.27;94.28;44607.16;5069522;28;20500;-73
2024/02/25 07:38:11;;;;;;;29.95;16.98;;;;;;;-146.27;94.70;44605.16;5069042;28;20028;-73
2024/02/25 07:40:37;;;;;;;26.67;15.45;;;;;;;-146.27;94.11;44617.09;5069417;28;20020;-71
2024/02/25 07:43:04;;;;;;;25.92;15.18;;;;;;;-146.27;93.95;44585.25;5063945;28;20023;-73
2024/02/25 07:45:29;;;;;;;28.67;16.23;;;;;;;-146.27;93.77;44577.31;5063453;28;20103;-73
2024/02/25 07:47:54;;;;;;;28.92;15.95;;;;;;;-146.27;93.66;44621.06;5067404;28;20099;-72
2024/02/25 07:50:20;;;;;;;27.42;16.50;;;;;;;-146.27;94.08;44650.94;5069138;28;20024;-72
2024/02/25 07:52:45;;;;;;;24.48;15.20;;;;;;;-146.27;93.61;44652.91;5069830;28;20032;-72
2024/02/25 07:55:11;;;;;;;27.95;15.63;;;;;;;-146.27;93.20;44640.97;5068274;28;20051;-73
2024/02/25 07:57:36;;;;;;;28.30;15.90;;;;;;;-146.27;93.92;44754.41;5082124;28;20443;-74
2024/02/25 08:00:04;;;;;;;28.80;16.48;;;;;;;-146.27;94.53;44708.63;5069436;28;20055;-73
2024/02/25 08:02:33;;;;;;;25.48;16.08;;;;;;;-146.27;93.63;44684.75;5064444;28;20115;-74
2024/02/25 08:04:58;;;;;;;33.03;16.50;;;;;;;-146.27;93.36;44678.78;5069526;28;20117;-74
2024/02/25 08:07:23;;;;;;;33.92;16.25;;;;;;;-146.27;93.33;44688.72;5066934;28;20052;-74
2024/02/25 08:09:49;;;;;;;29.90;15.88;;;;;;;-146.27;92.83;44692.72;5067037;28;20059;-73
2024/02/25 08:12:14;;;;;;;28.55;15.88;;;;;;;-146.27;93.16;44712.59;5070662;28;20149;-74
2024/02/25 08:14:40;;;;;;;31.63;16.38;;;;;;;-146.27;93.25;44700.66;5063747;28;20075;-74
2024/02/25 08:17:05;;;;;;;26.30;15.68;;;;;;;-146.27;93.19;44680.78;5068100;28;20036;-74
2024/02/25 08:19:31;;;;;;;26.98;15.88;;;;;;;-146.27;92.71;44631.03;5070150;28;20403;-73
2024/02/25 08:21:56;;;;;;;28.95;15.50;;;;;;;-146.27;92.96;44660.88;5055344;28;20032;-73
2024/02/25 08:24:22;;;;;;;26.10;15.38;;;;;;;-146.27;92.53;44648.94;5066311;28;21476;-73
2024/02/25 08:26:47;;;;;;;27.58;15.00;;;;;;;-146.27;93.11;44716.59;5076053;28;20933;-74
2024/02/25 08:29:12;;;;;;;24.15;15.05;;;;;;;-146.27;92.44;44664.84;5075091;28;20073;-73
2024/02/25 08:31:38;;;;;;;25.52;14.88;;;;;;;-146.27;92.48;44680.78;5072917;28;20024;-72
2024/02/25 08:34:03;;;;;;;20.17;12.55;;;;;;;-146.27;92.90;44772.31;5077376;28;20038;-74
2024/02/25 08:36:28;;;;;;;20.75;13.65;;;;;;;-146.27;92.36;44668.84;5073428;28;20094;-73
2024/02/25 08:38:54;;;;;;;23.42;14.10;;;;;;;-146.27;92.24;44700.66;5070227;28;20028;-74
2024/02/25 08:41:20;;;;;;;23.80;14.45;;;;;;;-146.27;92.33;44696.69;5071795;28;20032;-74
2024/02/25 08:43:45;;;;;;;25.95;15.00;;;;;;;-146.27;92.04;44704.66;5073425;28;20039;-74
2024/02/25 08:46:11;;;;;;;21.33;13.68;;;;;;;-146.27;92.38;44700.66;5072872;28;20103;-73
2024/02/25 08:48:36;;;;;;;22.77;13.98;;;;;;;-146.27;92.24;44627.03;5076878;28;20036;-73
2024/02/25 08:51:02;;;;;;;20.70;13.30;;;;;;;-146.27;91.89;44672.81;5072351;28;20046;-73
2024/02/25 08:53:27;;;;;;;20.92;13.07;;;;;;;-146.27;91.80;44615.09;5073762;28;20024;-74
2024/02/25 08:55:53;;;;;;;23.67;13.27;;;;;;;-146.27;91.84;44617.09;5074929;28;20028;-72
2024/02/25 08:58:18;;;;;;;25.20;13.23;;;;;;;-146.27;91.33;44611.13;5075954;28;20389;-73
2024/02/25 09:00:47;;;;;;;22.05;13.25;;;;;;;-146.27;91.67;44680.78;5074273;28;20048;-72
2024/02/25 09:03:13;;;;;;;20.15;12.82;;;;;;;-146.27;91.37;44664.84;5073609;28;20370;-73
2024/02/25 09:05:40;;;;;;;20.05;14.00;;;;;;;-146.27;90.96;44648.94;5078180;28;20374;-74
2024/02/25 09:08:06;;;;;;;21.27;12.98;;;;;;;-146.27;90.53;44569.34;5075122;28;20114;-74
2024/02/25 09:10:34;;;;;;;19.73;13.63;;;;;;;-146.27;90.12;44633.00;5075806;28;20103;-74
2024/02/25 09:13:02;;;;;;;21.27;12.93;;;;;;;-146.27;89.93;44581.28;5074078;28;20032;-73
2024/02/25 09:15:28;;;;;;;20.10;13.07;;;;;;;-146.27;89.75;44637.00;5071404;28;20021;-74
2024/02/25 09:17:54;;;;;;;24.83;13.75;;;;;;;-146.27;89.49;44660.88;5074516;28;20542;-73
2024/02/25 09:20:21;;;;;;;19.80;12.73;;;;;;;-146.27;88.86;44648.94;5071250;28;20392;-74
2024/02/25 09:22:47;;;;;;;21.00;12.05;;;;;;;-146.27;88.67;44660.88;5069628;28;20033;-74
2024/02/25 09:25:12;;;;;;;23.42;13.50;;;;;;;-146.27;89.00;44736.50;5067902;28;20054;-74
2024/02/25 09:27:41;;;;;;;19.92;12.73;;;;;;;-146.27;89.76;44760.38;5074100;28;20594;-74
2024/02/25 09:30:07;;;;;;;22.65;12.18;;;;;;;-146.27;89.16;44672.81;5071633;28;20638;-74
2024/02/25 09:32:35;;;;;;;17.83;11.65;;;;;;;-146.27;88.43;44732.50;5074208;28;20040;-74
2024/02/25 09:35:01;;;;;;;20.35;12.10;;;;;;;-146.27;87.59;44684.75;5072304;28;20032;-74
2024/02/25 09:37:27;;;;;;;18.70;12.50;;;;;;;-146.27;86.54;44756.38;5065538;28;20033;-75
2024/02/25 09:39:52;;;;;;;15.23;11.27;;;;;;;-146.27;87.02;44784.25;5069825;28;20021;-74
2024/02/25 09:42:21;;;;;;;21.50;12.40;;;;;;;-146.27;86.81;44698.69;5069854;28;20028;-73
2024/02/25 09:44:51;;;;;;;16.92;11.63;;;;;;;-146.27;86.59;44716.59;5068284;28;20086;-74
2024/02/25 09:47:17;;;;;;;17.05;12.18;;;;;;;-146.27;86.73;44712.59;5068136;28;20052;-74
2024/02/25 09:49:45;;;;;;;18.05;12.10;;;;;;;-146.27;86.12;44867.81;5063152;28;20056;-75
2024/02/25 09:52:12;;;;;;;18.50;11.57;;;;;;;-146.27;86.68;44816.09;5083602;28;20054;-74
2024/02/25 09:54:38;;;;;;;22.52;13.15;;;;;;;-146.27;87.14;44875.78;5075154;28;20031;-74
2024/02/25 09:57:03;;;;;;;22.83;13.20;;;;;;;-146.27;86.32;44674.81;5070672;28;20024;-74
2024/02/25 09:59:29;;;;;;;25.00;12.95;;;;;;;-146.27;84.91;44710.63;5071512;28;20027;-73
2024/02/25 10:01:54;;;;;;;19.08;12.65;;;;;;;-146.27;84.81;44714.59;5070792;28;20059;-73
2024/02/25 10:04:23;;;;;;;18.45;12.77;;;;;;;-146.27;83.45;44698.69;5071312;28;20490;-73
2024/02/25 10:06:49;;;;;;;21.58;12.20;;;;;;;-146.27;83.39;44724.56;5076021;28;20491;-74
2024/02/25 10:09:27;;;;;;;18.83;12.70;;;;;;;-146.27;83.48;44776.28;5072150;28;20033;-74
2024/02/25 10:11:52;;;;;;;16.95;11.80;;;;;;;-146.27;82.82;44688.72;5076636;28;20028;-75
2024/02/25 10:14:18;;;;;;;17.45;10.95;;;;;;;-146.27;83.34;44784.25;5082433;28;20209;-74
2024/02/25 10:16:59;;;;;;;17.15;11.70;;;;;;;-146.27;83.67;44730.53;5071549;28;20568;-74
2024/02/25 10:19:24;;;;;;;19.40;11.38;;;;;;;-146.27;82.61;44748.44;5070836;28;20377;-75
2024/02/25 10:21:50;;;;;;;17.35;10.68;;;;;;;-146.27;82.14;44810.13;5074633;28;20036;-74
2024/02/25 10:24:40;;;;;;;18.95;10.52;;;;;;;-146.27;82.54;44720.56;5070643;28;20698;-71
2024/02/25 10:27:10;;;;;;;14.80;8.60;;;;;;;-146.27;81.70;44802.16;5072335;28;20277;-73
2024/02/25 10:29:59;;;;;;;13.43;8.48;;;;;;;-146.27;80.40;44907.63;5075664;28;20108;-74
2024/02/25 10:32:27;;;;;;;13.57;8.00;;;;;;;-146.27;80.37;44824.03;5072420;28;20024;-73
2024/02/25 10:34:55;;;;;;;11.98;8.10;;;;;;;-146.27;80.53;44865.84;5081042;28;20048;-73
2024/02/25 10:37:24;;;;;;;14.00;8.02;;;;;;;-146.27;80.05;45017.06;5081285;28;20024;-74
2024/02/25 10:39:52;;;;;;;12.18;8.07;;;;;;;-146.27;79.55;44961.34;5087270;28;20120;-73
2024/02/25 10:42:23;;;;;;;10.35;7.32;;;;;;;-146.27;78.68;44975.28;5085508;28;20106;-74
2024/02/25 10:44:51;;;;;;;11.00;7.13;;;;;;;-146.27;77.98;44883.75;5072361;28;20035;-73
2024/02/25 10:47:18;;;;;;;9.18;6.60;;;;;;;-146.27;76.99;44955.38;5072695;28;20028;-73
2024/02/25 10:49:46;;;;;;;9.73;6.43;;;;;;;-146.27;77.48;44929.50;5071769;28;20111;-73
2024/02/25 10:52:13;;;;;;;11.30;7.00;;;;;;;-146.27;78.46;44851.91;5072757;28;20027;-73
2024/02/25 10:54:46;;;;;;;9.98;6.72;;;;;;;-146.27;78.19;44975.28;5073221;28;20420;-74
2024/02/25 10:57:13;;;;;;;9.18;6.97;;;;;;;-146.27;78.36;44949.41;5073198;28;20029;-74
2024/02/25 10:59:40;;;;;;;13.13;6.80;;;;;;;-146.27;78.54;44931.50;5080513;28;20040;-73